Portada
METAR-TAF:

METAR-TAF

Aeroports :

Busan, Corea del Sud

latitud: 35-11N, longitud: 128-56E, altitud: 4 m

Observació

L'informe es va fer fa 51 minuts, a les 10:00 UTC
Vent 6 kt del Nord-Est
Temperatura 14°C
Humitat 67%
Pressió 1026 hPa
Visibilitat 10 km o més
Escasses núvols a una alçada de 5000 ft

METAR: RKPK 221000Z 04006KT 9999 FEW050 14/08 Q1026

Hora: 19:51 (10:51 UTC)

Pronòstic

L'informe es va fer fa 5 hores i 51 minuts, a les 05:00 UTC
Pronòstic vàlid del 22 a les 06 UTC al 23 a les 12 UTC
Vent 6 kt del Est/Nord-Est
Visibilitat 10 km o més
Núvols disperses a una alçada de 3000 ft
Temporalment
l' 22 a les 06 UTC al 22 a les 12 UTC
Cel ennuvolat a una alçada de 3000 ft

TAF: RKPK 220500Z 2206/2312 06006KT 9999 SCT030 TN06/2221Z TX19/2306Z TEMPO 2206/2212 BKN030

Observacions i pronòstics meteorològics de més de 4000 aeroports (METAR i TAF).

Les estacions disponibles són els punts grocs i vermells al mapa.

Posi el ratolí al punt desitjat per veure el nom de l'estació.

Feu clic per veure les observacions i els pronòstics meteorològics.

Per canviar el mapa: feu clic els botons verds amb una creu de color negre per apropar; al botó verd amb un guió per allunyar la imatge; o en les fletxes verdes per a mapes adjacents.


METAR-TAF: